Time;durP1;ratioP1;P1;durP2;ratioP2;P2;SDS_P1;SDS_P2;PMS_P1;PMS_P2;Temp;Humidity;BMP_temperature;BMP_pressure;BME280_temperature;BME280_humidity;BME280_pressure;Samples;Min_cycle;Max_cycle;Signal;HPM_P1;HPM_P2
2023/02/02 00:01:48;;;;;;;15.80;3.35;;;9.30;99.90;;;;;;5010764;28;20018;-69
2023/02/02 00:04:29;;;;;;;22.67;3.88;;;9.30;99.90;;;;;;5013443;28;20121;-69
2023/02/02 00:06:58;;;;;;;22.05;4.38;;;9.40;99.90;;;;;;5011859;28;20026;-70
2023/02/02 00:09:30;;;;;;;20.77;4.65;;;9.30;99.90;;;;;;5010453;28;20260;-74
2023/02/02 00:11:57;;;;;;;16.37;3.47;;;9.30;99.90;;;;;;5010735;28;20049;-69
2023/02/02 00:14:23;;;;;;;25.17;5.25;;;9.40;99.90;;;;;;5009123;28;20021;-69
2023/02/02 00:16:53;;;;;;;17.00;3.92;;;9.40;99.90;;;;;;5008886;28;20115;-69
2023/02/02 00:19:21;;;;;;;28.98;4.88;;;9.30;99.90;;;;;;5010367;28;20050;-69
2023/02/02 00:21:48;;;;;;;21.70;3.88;;;9.40;99.90;;;;;;5010287;28;20556;-71
2023/02/02 00:24:17;;;;;;;20.45;4.43;;;9.40;99.90;;;;;;5011039;28;20133;-69
2023/02/02 00:26:49;;;;;;;19.73;4.57;;;9.40;99.90;;;;;;4981476;28;20029;-70
2023/02/02 00:29:20;;;;;;;27.23;4.53;;;9.30;99.90;;;;;;5006300;28;20097;-69
2023/02/02 00:31:47;;;;;;;28.20;4.38;;;9.40;99.90;;;;;;5007788;28;20466;-73
2023/02/02 00:34:13;;;;;;;34.25;4.93;;;9.40;99.90;;;;;;5008511;28;20029;-69
2023/02/02 00:36:39;;;;;;;24.73;4.53;;;9.40;99.90;;;;;;5005243;28;20038;-69
2023/02/02 00:39:06;;;;;;;28.40;5.63;;;9.30;99.90;;;;;;5008915;28;20030;-69
2023/02/02 00:41:31;;;;;;;19.42;4.38;;;9.20;99.90;;;;;;5009236;28;20026;-70
2023/02/02 00:46:41;;;;;;;23.45;5.28;;;9.30;99.90;;;;;;5006171;28;20445;-70
2023/02/02 00:49:08;;;;;;;24.92;5.03;;;9.40;99.90;;;;;;5008963;28;20061;-69
2023/02/02 00:51:34;;;;;;;26.40;4.47;;;9.40;99.90;;;;;;5009176;28;20079;-70
2023/02/02 00:54:00;;;;;;;14.63;3.28;;;9.30;99.90;;;;;;5008206;28;20084;-69
2023/02/02 00:56:25;;;;;;;25.77;3.97;;;9.30;99.90;;;;;;5006516;28;20478;-73
2023/02/02 00:58:51;;;;;;;27.02;4.53;;;9.40;99.90;;;;;;5010416;28;20036;-70
2023/02/02 01:01:19;;;;;;;22.17;4.63;;;9.40;99.90;;;;;;5010555;28;20379;-70
2023/02/02 01:03:45;;;;;;;22.92;4.22;;;9.40;99.90;;;;;;5010203;28;20463;-73
2023/02/02 01:06:11;;;;;;;29.95;5.15;;;9.40;99.90;;;;;;5011629;28;20022;-72
2023/02/02 01:08:36;;;;;;;23.48;4.22;;;9.40;99.90;;;;;;5008761;28;20053;-70
2023/02/02 01:11:02;;;;;;;19.90;3.65;;;9.40;99.90;;;;;;5010105;28;20364;-69
2023/02/02 01:13:28;;;;;;;21.73;4.22;;;9.50;99.90;;;;;;5013338;28;20037;-70
2023/02/02 01:15:58;;;;;;;23.33;4.22;;;9.50;99.90;;;;;;5008871;28;20045;-69
2023/02/02 01:18:23;;;;;;;23.65;4.43;;;9.50;99.90;;;;;;5011288;28;20467;-73
2023/02/02 01:21:00;;;;;;;16.77;3.90;;;9.50;99.90;;;;;;5011275;28;20037;-71
2023/02/02 01:23:26;;;;;;;19.58;4.22;;;9.50;99.90;;;;;;5011635;28;20061;-70
2023/02/02 01:25:58;;;;;;;28.63;4.43;;;9.50;99.90;;;;;;5008920;28;20049;-73
2023/02/02 01:28:24;;;;;;;27.05;3.72;;;9.50;99.90;;;;;;5010257;28;20025;-72
2023/02/02 01:30:50;;;;;;;24.90;4.15;;;9.50;99.90;;;;;;5010336;28;20508;-73
2023/02/02 01:33:17;;;;;;;27.67;4.82;;;9.50;99.90;;;;;;5012822;28;20112;-70
2023/02/02 01:35:51;;;;;;;18.95;4.55;;;9.50;99.90;;;;;;5010470;28;20508;-69
2023/02/02 01:38:17;;;;;;;28.10;4.60;;;9.50;99.90;;;;;;5009720;28;20387;-69
2023/02/02 01:40:48;;;;;;;22.13;4.35;;;9.50;99.90;;;;;;5010013;28;20032;-70
2023/02/02 01:43:26;;;;;;;17.75;4.03;;;9.60;99.90;;;;;;5010540;28;20425;-69
2023/02/02 01:45:52;;;;;;;25.17;4.28;;;9.50;99.90;;;;;;5009139;28;20022;-70
2023/02/02 01:48:32;;;;;;;17.75;4.25;;;9.50;99.90;;;;;;5011094;28;20152;-70
2023/02/02 01:51:02;;;;;;;22.95;4.10;;;9.50;99.90;;;;;;5007968;28;20116;-69
2023/02/02 01:53:28;;;;;;;21.02;4.72;;;9.50;99.90;;;;;;5011852;28;20017;-70
2023/02/02 01:55:55;;;;;;;20.25;4.00;;;9.60;99.90;;;;;;5006793;28;20026;-69
2023/02/02 01:58:24;;;;;;;20.70;4.28;;;9.50;99.90;;;;;;5012088;28;20505;-70
2023/02/02 02:00:51;;;;;;;20.60;4.45;;;9.50;99.90;;;;;;5008251;28;20109;-70
2023/02/02 02:03:20;;;;;;;14.00;3.75;;;9.60;99.90;;;;;;5011312;28;20029;-75
2023/02/02 02:06:05;;;;;;;22.25;4.40;;;9.60;99.90;;;;;;5010412;28;20029;-69
2023/02/02 02:08:42;;;;;;;18.85;4.20;;;9.50;99.90;;;;;;5009418;28;20022;-71
2023/02/02 02:11:08;;;;;;;21.75;4.85;;;9.50;99.90;;;;;;5014760;28;20106;-69
2023/02/02 02:16:41;;;;;;;19.17;4.57;;;9.50;99.90;;;;;;5010904;28;20049;-70
2023/02/02 02:19:07;;;;;;;15.88;3.28;;;9.60;99.90;;;;;;5013975;28;20517;-70
2023/02/02 02:28:27;;;;;;;25.10;4.35;;;9.60;99.90;;;;;;5010417;28;20403;-69
2023/02/02 02:31:37;;;;;;;19.48;3.85;;;9.60;99.90;;;;;;5007826;28;20014;-69
2023/02/02 02:34:13;;;;;;;18.58;4.22;;;9.60;99.90;;;;;;5003455;28;20046;-69
2023/02/02 02:36:50;;;;;;;21.80;3.90;;;9.60;99.90;;;;;;5009150;28;20049;-68
2023/02/02 02:39:23;;;;;;;23.65;4.78;;;9.60;99.90;;;;;;5005519;28;20076;-69
2023/02/02 02:41:55;;;;;;;24.17;4.32;;;9.60;99.90;;;;;;5008232;28;20034;-68
2023/02/02 02:44:21;;;;;;;28.27;4.57;;;9.60;99.90;;;;;;5008810;28;20085;-69
2023/02/02 02:46:48;;;;;;;16.63;4.03;;;9.50;99.90;;;;;;5013187;28;20021;-69
2023/02/02 02:49:14;;;;;;;20.38;3.50;;;9.60;99.90;;;;;;5006772;28;20033;-69
2023/02/02 02:51:51;;;;;;;24.00;4.30;;;9.60;99.90;;;;;;5012459;28;20026;-69
2023/02/02 02:54:25;;;;;;;18.70;4.55;;;9.70;99.90;;;;;;5004630;28;20026;-69
2023/02/02 02:57:15;;;;;;;16.98;4.18;;;9.60;99.90;;;;;;5009409;28;20398;-69
2023/02/02 02:59:52;;;;;;;18.38;3.63;;;9.70;99.90;;;;;;5006155;28;20030;-69
2023/02/02 03:02:33;;;;;;;22.27;4.30;;;9.70;99.90;;;;;;5008901;28;20034;-69
2023/02/02 03:05:07;;;;;;;21.92;3.85;;;9.60;99.90;;;;;;5005376;28;20022;-70
2023/02/02 03:08:04;;;;;;;20.10;4.35;;;9.70;99.90;;;;;;5006527;28;20021;-69
2023/02/02 03:10:30;;;;;;;25.48;4.45;;;9.60;99.90;;;;;;5008898;28;20486;-69
2023/02/02 03:12:56;;;;;;;19.58;4.30;;;9.70;99.90;;;;;;5006959;28;20026;-71
2023/02/02 03:15:22;;;;;;;25.52;5.28;;;9.60;99.90;;;;;;5008197;28;20544;-69
2023/02/02 03:17:50;;;;;;;31.60;3.97;;;9.50;99.90;;;;;;5017220;28;20053;-69
2023/02/02 03:20:16;;;;;;;19.63;4.30;;;9.60;99.90;;;;;;5017005;28;20505;-69
2023/02/02 03:22:42;;;;;;;23.67;4.38;;;9.60;99.90;;;;;;5012165;28;20034;-69
2023/02/02 03:25:10;;;;;;;26.10;4.50;;;9.50;99.90;;;;;;5005637;28;20026;-68
2023/02/02 03:27:37;;;;;;;25.58;4.55;;;9.50;99.90;;;;;;5011507;28;20033;-69
2023/02/02 03:30:08;;;;;;;28.60;5.15;;;9.60;99.90;;;;;;5005874;28;20041;-70
2023/02/02 03:32:34;;;;;;;22.42;4.57;;;9.60;99.90;;;;;;5009908;28;20123;-69
2023/02/02 03:34:59;;;;;;;20.17;4.22;;;9.60;99.90;;;;;;5008643;28;20085;-69
2023/02/02 03:37:25;;;;;;;14.18;4.22;;;9.60;99.90;;;;;;5007660;28;20025;-69
2023/02/02 03:39:51;;;;;;;21.08;4.30;;;9.50;99.90;;;;;;5010386;28;20273;-69
2023/02/02 03:42:16;;;;;;;22.42;4.50;;;9.50;99.90;;;;;;5009888;28;20029;-69
2023/02/02 03:44:42;;;;;;;31.20;5.75;;;9.50;99.90;;;;;;5010526;28;20165;-69
2023/02/02 03:47:08;;;;;;;23.60;4.97;;;9.50;99.90;;;;;;5007308;28;20038;-69
2023/02/02 03:49:33;;;;;;;25.15;5.10;;;9.60;99.90;;;;;;5008189;28;20655;-69
2023/02/02 03:52:01;;;;;;;24.70;4.78;;;9.60;99.90;;;;;;5011050;28;20032;-69
2023/02/02 03:54:27;;;;;;;27.27;6.32;;;9.60;99.90;;;;;;5012421;28;20030;-69
2023/02/02 03:56:52;;;;;;;26.02;4.45;;;9.50;99.90;;;;;;5011712;28;20478;-69
2023/02/02 03:59:18;;;;;;;22.25;5.43;;;9.60;99.90;;;;;;5015256;28;20018;-69
2023/02/02 04:01:44;;;;;;;19.75;4.15;;;9.50;99.90;;;;;;5011618;28;20367;-69
2023/02/02 04:04:09;;;;;;;27.33;5.32;;;9.50;99.90;;;;;;5012510;28;20042;-69
2023/02/02 04:06:35;;;;;;;25.77;5.22;;;9.50;99.90;;;;;;5001783;28;20109;-69
2023/02/02 04:09:00;;;;;;;24.10;4.95;;;9.50;99.90;;;;;;5010647;28;20026;-70
2023/02/02 04:11:26;;;;;;;23.77;4.75;;;9.50;99.90;;;;;;5010441;28;20018;-69
2023/02/02 04:13:51;;;;;;;22.25;5.07;;;9.50;99.90;;;;;;5008547;28;20057;-69
2023/02/02 04:16:17;;;;;;;28.83;5.03;;;9.60;99.90;;;;;;5010044;28;20041;-69
2023/02/02 04:18:43;;;;;;;18.73;4.63;;;9.60;99.90;;;;;;5004813;28;20065;-69
2023/02/02 04:21:08;;;;;;;21.67;4.97;;;9.50;99.90;;;;;;5007498;28;20437;-68
2023/02/02 04:23:34;;;;;;;22.08;4.70;;;9.60;99.90;;;;;;5008266;28;20034;-69
2023/02/02 04:26:00;;;;;;;16.15;3.88;;;9.60;99.90;;;;;;5008384;28;20022;-69
2023/02/02 04:28:26;;;;;;;28.50;5.13;;;9.60;99.90;;;;;;5011700;28;20041;-70
2023/02/02 04:30:54;;;;;;;19.75;4.82;;;9.50;99.90;;;;;;5009659;28;20084;-69
2023/02/02 04:33:22;;;;;;;24.77;5.07;;;9.50;99.90;;;;;;5006605;28;20138;-69
2023/02/02 04:35:48;;;;;;;24.40;5.47;;;9.60;99.90;;;;;;5008415;28;20030;-69
2023/02/02 04:38:14;;;;;;;24.15;5.10;;;9.60;99.90;;;;;;5011979;28;20112;-71
2023/02/02 04:40:41;;;;;;;21.75;3.90;;;9.50;99.90;;;;;;5012051;28;20022;-69
2023/02/02 04:43:07;;;;;;;30.23;5.28;;;9.50;99.90;;;;;;5010396;28;20038;-69
2023/02/02 04:45:33;;;;;;;27.83;5.13;;;9.50;99.90;;;;;;5011936;28;20041;-69
2023/02/02 04:47:59;;;;;;;29.10;5.25;;;9.50;99.90;;;;;;5016017;28;20018;-71
2023/02/02 04:50:24;;;;;;;25.25;5.47;;;9.50;99.90;;;;;;5015089;28;20040;-69
2023/02/02 04:52:50;;;;;;;23.85;4.70;;;9.50;99.90;;;;;;5012865;28;20489;-70
2023/02/02 04:55:16;;;;;;;21.75;4.22;;;9.50;99.90;;;;;;5007292;28;20034;-69
2023/02/02 04:57:42;;;;;;;24.85;4.78;;;9.50;99.90;;;;;;5010740;28;20026;-69
2023/02/02 05:00:10;;;;;;;28.67;5.60;;;9.40;99.90;;;;;;5007443;28;20065;-69
2023/02/02 05:02:39;;;;;;;21.73;4.78;;;9.50;99.90;;;;;;5012471;28;20544;-69
2023/02/02 05:05:07;;;;;;;32.05;5.22;;;9.60;99.90;;;;;;5006488;28;20038;-69
2023/02/02 05:07:33;;;;;;;22.70;4.18;;;9.60;99.90;;;;;;5013824;28;20382;-70
2023/02/02 05:09:58;;;;;;;29.20;5.55;;;9.60;99.90;;;;;;5009696;28;20022;-71
2023/02/02 05:12:24;;;;;;;29.77;5.55;;;9.50;99.90;;;;;;5013503;28;20042;-69
2023/02/02 05:14:49;;;;;;;24.25;4.65;;;9.50;99.90;;;;;;5009842;28;20037;-69
2023/02/02 05:17:15;;;;;;;22.40;4.55;;;9.60;99.90;;;;;;5009862;28;20494;-70
2023/02/02 05:19:41;;;;;;;22.38;5.10;;;9.40;99.90;;;;;;5013224;28;20029;-69
2023/02/02 05:22:06;;;;;;;22.52;5.07;;;9.50;99.90;;;;;;5013370;28;20101;-70
2023/02/02 05:24:32;;;;;;;28.17;5.15;;;9.40;99.90;;;;;;5008776;28;20029;-69
2023/02/02 05:26:59;;;;;;;23.73;4.82;;;9.50;99.90;;;;;;5011588;28;20072;-69
2023/02/02 05:29:26;;;;;;;25.65;5.13;;;9.60;99.90;;;;;;5014815;28;20026;-69
2023/02/02 05:31:52;;;;;;;17.13;4.53;;;9.60;99.90;;;;;;5013703;28;20442;-69
2023/02/02 05:34:18;;;;;;;20.00;4.90;;;9.60;99.90;;;;;;5012992;28;20038;-69
2023/02/02 05:36:43;;;;;;;20.55;4.55;;;9.50;99.90;;;;;;5007559;28;20036;-69
2023/02/02 05:39:10;;;;;;;31.48;5.57;;;9.50;99.90;;;;;;5014762;28;20032;-69
2023/02/02 05:41:35;;;;;;;25.83;4.63;;;9.60;99.90;;;;;;5008113;28;20528;-69
2023/02/02 05:44:01;;;;;;;20.80;4.50;;;9.50;99.90;;;;;;5012016;28;20025;-70
2023/02/02 05:46:27;;;;;;;23.45;4.75;;;9.60;99.90;;;;;;5006679;28;20034;-69
2023/02/02 05:48:53;;;;;;;26.33;4.95;;;9.60;99.90;;;;;;5013032;28;20152;-69
2023/02/02 05:51:32;;;;;;;23.33;4.28;;;9.60;99.90;;;;;;5009437;28;20033;-70
2023/02/02 05:53:59;;;;;;;27.27;5.10;;;9.60;99.90;;;;;;5013664;28;20466;-69
2023/02/02 05:56:24;;;;;;;23.90;4.93;;;9.50;99.90;;;;;;5006451;28;20038;-69
2023/02/02 05:58:50;;;;;;;28.20;5.03;;;9.50;99.90;;;;;;5013136;28;20033;-68
2023/02/02 06:01:17;;;;;;;17.08;4.50;;;9.50;99.90;;;;;;5013375;28;20482;-69
2023/02/02 06:03:42;;;;;;;28.15;5.13;;;9.60;99.90;;;;;;5012013;28;20132;-69
2023/02/02 06:06:08;;;;;;;22.23;4.47;;;9.50;99.90;;;;;;5007741;28;20058;-69
2023/02/02 06:08:34;;;;;;;29.85;5.30;;;9.50;99.90;;;;;;5011103;28;20037;-68
2023/02/02 06:11:11;;;;;;;31.92;5.60;;;9.40;99.90;;;;;;5010377;28;20387;-69
2023/02/02 06:13:37;;;;;;;23.80;5.03;;;9.40;99.90;;;;;;5009454;28;20032;-69
2023/02/02 06:16:03;;;;;;;26.33;5.40;;;9.50;99.90;;;;;;5009475;28;20034;-71
2023/02/02 06:18:29;;;;;;;21.02;5.25;;;9.40;99.90;;;;;;5008772;28;20101;-69
2023/02/02 06:20:59;;;;;;;23.38;5.30;;;9.40;99.90;;;;;;5010351;28;20059;-70
2023/02/02 06:23:25;;;;;;;33.33;5.28;;;9.40;99.90;;;;;;5010884;28;20104;-69
2023/02/02 06:25:50;;;;;;;28.00;5.45;;;9.40;99.90;;;;;;5011796;28;20422;-70
2023/02/02 06:28:16;;;;;;;20.88;5.30;;;9.40;99.90;;;;;;5008536;28;20022;-69
2023/02/02 06:30:41;;;;;;;26.65;5.43;;;9.30;99.90;;;;;;5008120;28;20080;-70
2023/02/02 06:33:07;;;;;;;29.13;6.20;;;9.40;99.90;;;;;;5010244;28;20056;-70
2023/02/02 06:35:33;;;;;;;26.67;5.80;;;9.40;99.90;;;;;;5008310;28;20037;-69
2023/02/02 06:37:58;;;;;;;18.20;5.43;;;9.30;99.90;;;;;;5012214;28;20030;-69
2023/02/02 06:40:25;;;;;;;29.50;6.10;;;9.30;99.90;;;;;;5005310;28;20438;-73
2023/02/02 06:42:59;;;;;;;30.92;6.72;;;9.30;99.90;;;;;;5013092;28;20038;-70
2023/02/02 06:45:26;;;;;;;24.52;6.10;;;9.20;99.90;;;;;;5012968;28;20027;-70
2023/02/02 06:47:52;;;;;;;24.67;5.95;;;9.20;99.90;;;;;;5007441;28;20044;-69
2023/02/02 06:50:18;;;;;;;23.85;6.32;;;9.20;99.90;;;;;;5009169;28;20023;-69
2023/02/02 06:52:48;;;;;;;26.33;6.63;;;9.20;99.90;;;;;;5010680;28;20029;-69
2023/02/02 06:55:13;;;;;;;30.38;6.35;;;9.20;99.90;;;;;;5003766;28;20030;-69
2023/02/02 06:57:39;;;;;;;29.52;6.95;;;9.20;99.90;;;;;;5010393;28;20037;-69
2023/02/02 07:00:05;;;;;;;34.17;7.68;;;9.20;99.90;;;;;;5013804;28;20049;-70
2023/02/02 07:02:31;;;;;;;26.73;7.00;;;9.10;99.90;;;;;;5006921;28;20026;-70
2023/02/02 07:04:57;;;;;;;27.75;6.72;;;9.20;99.90;;;;;;5008681;28;20433;-69
2023/02/02 07:07:22;;;;;;;24.65;6.32;;;9.20;99.90;;;;;;5006628;28;20194;-69
2023/02/02 07:09:48;;;;;;;31.77;7.32;;;9.30;99.90;;;;;;5007897;28;20458;-69
2023/02/02 07:12:13;;;;;;;25.98;6.03;;;9.20;99.90;;;;;;5010821;28;20379;-69
2023/02/02 07:14:39;;;;;;;28.48;7.72;;;9.20;99.90;;;;;;5007964;28;20029;-70
2023/02/02 07:17:05;;;;;;;24.02;5.75;;;9.20;99.90;;;;;;5005144;28;20079;-70
2023/02/02 07:19:30;;;;;;;30.67;6.82;;;9.20;99.90;;;;;;5009645;28;20037;-70
2023/02/02 07:21:56;;;;;;;24.15;7.05;;;9.20;99.90;;;;;;5008512;28;20026;-70
2023/02/02 07:24:22;;;;;;;23.95;6.65;;;9.20;99.90;;;;;;5010677;28;20363;-71
2023/02/02 07:26:47;;;;;;;27.52;6.65;;;9.20;99.90;;;;;;5013793;28;20048;-71
2023/02/02 07:29:13;;;;;;;26.25;7.00;;;9.30;99.90;;;;;;5011283;28;20049;-70
2023/02/02 07:31:39;;;;;;;23.52;7.30;;;9.30;99.90;;;;;;5004335;28;20109;-70
2023/02/02 07:34:05;;;;;;;26.33;6.65;;;9.30;99.90;;;;;;5007737;28;20069;-72
2023/02/02 07:36:31;;;;;;;27.98;6.32;;;9.30;99.90;;;;;;5007264;28;20150;-70
2023/02/02 07:38:56;;;;;;;25.20;5.90;;;9.20;99.90;;;;;;5007875;28;20096;-73
2023/02/02 07:41:23;;;;;;;28.63;6.95;;;9.20;99.90;;;;;;5010075;28;20092;-73
2023/02/02 07:43:50;;;;;;;18.88;6.43;;;9.10;99.90;;;;;;5012585;28;20018;-70
2023/02/02 07:46:17;;;;;;;29.92;6.68;;;9.30;99.90;;;;;;5012189;28;20083;-72
2023/02/02 07:48:42;;;;;;;27.38;5.80;;;9.20;99.90;;;;;;5004797;28;20034;-70
2023/02/02 07:51:11;;;;;;;19.40;5.90;;;9.20;99.90;;;;;;5009980;28;20490;-72
2023/02/02 07:53:37;;;;;;;18.27;5.43;;;9.30;99.90;;;;;;5012977;28;20030;-71
2023/02/02 07:56:05;;;;;;;24.60;5.95;;;9.20;99.90;;;;;;5011575;28;20493;-70
2023/02/02 07:58:31;;;;;;;21.55;6.57;;;9.10;99.90;;;;;;5008393;28;20117;-74
2023/02/02 08:01:01;;;;;;;29.05;5.90;;;9.20;99.90;;;;;;5007020;28;20113;-70
2023/02/02 08:03:27;;;;;;;26.38;5.78;;;9.20;99.90;;;;;;5004767;28;20064;-70
2023/02/02 08:05:52;;;;;;;26.55;6.05;;;9.20;99.90;;;;;;5006952;28;20033;-70
2023/02/02 08:08:18;;;;;;;27.08;6.78;;;9.20;99.90;;;;;;5009261;28;20030;-71
2023/02/02 08:10:48;;;;;;;21.67;6.30;;;9.20;99.90;;;;;;5011577;28;20038;-70
2023/02/02 08:13:13;;;;;;;22.90;6.00;;;9.20;99.90;;;;;;5008715;28;20038;-73
2023/02/02 08:15:39;;;;;;;23.70;6.45;;;9.20;99.90;;;;;;5014124;28;20046;-70
2023/02/02 08:18:04;;;;;;;32.38;6.18;;;9.20;99.90;;;;;;5010036;28;20021;-70
2023/02/02 08:20:30;;;;;;;16.42;5.25;;;9.30;99.90;;;;;;5011966;28;20052;-72
2023/02/02 08:22:56;;;;;;;29.50;6.50;;;9.30;99.90;;;;;;5010544;28;20030;-71
2023/02/02 08:25:21;;;;;;;22.25;5.40;;;9.30;99.90;;;;;;5008468;28;20545;-71
2023/02/02 08:27:47;;;;;;;22.23;8.60;;;9.40;99.90;;;;;;5014902;28;20080;-70
2023/02/02 08:30:12;;;;;;;19.85;6.45;;;9.40;99.90;;;;;;5013731;28;20367;-70
2023/02/02 08:32:39;;;;;;;19.38;5.53;;;9.30;99.90;;;;;;5011918;28;20060;-70
2023/02/02 08:35:05;;;;;;;25.27;5.75;;;9.40;99.90;;;;;;5011285;28;20041;-70
2023/02/02 08:37:31;;;;;;;22.95;5.40;;;9.40;99.90;;;;;;5009706;28;20050;-70
2023/02/02 08:39:56;;;;;;;20.58;5.68;;;9.50;99.90;;;;;;5011508;28;20497;-70
2023/02/02 08:42:22;;;;;;;20.63;4.78;;;9.50;99.90;;;;;;5012152;28;20037;-70
2023/02/02 08:44:48;;;;;;;20.00;5.15;;;9.50;99.90;;;;;;5010311;28;20054;-70
2023/02/02 08:47:14;;;;;;;18.25;5.18;;;9.50;99.90;;;;;;5017044;28;20079;-71
2023/02/02 08:49:41;;;;;;;22.92;5.47;;;9.40;99.90;;;;;;5013987;28;20468;-70
2023/02/02 08:52:07;;;;;;;23.80;4.85;;;9.50;99.90;;;;;;5012564;28;20065;-71
2023/02/02 08:54:32;;;;;;;21.13;4.93;;;9.50;99.90;;;;;;5014691;28;20061;-71
2023/02/02 08:56:58;;;;;;;22.50;5.13;;;9.50;99.90;;;;;;5013790;28;20486;-71
2023/02/02 08:59:24;;;;;;;19.33;4.70;;;9.60;99.90;;;;;;5011747;28;20108;-70
2023/02/02 09:01:49;;;;;;;26.35;5.90;;;9.50;99.90;;;;;;5014214;28;20057;-70
2023/02/02 09:04:15;;;;;;;20.55;5.05;;;9.60;99.90;;;;;;5011665;28;20030;-70
2023/02/02 09:06:41;;;;;;;17.60;4.68;;;9.60;99.90;;;;;;5014851;28;20064;-70
2023/02/02 09:09:13;;;;;;;23.35;5.20;;;9.60;99.90;;;;;;5010899;28;20061;-70
2023/02/02 09:11:40;;;;;;;26.33;4.53;;;9.60;99.90;;;;;;5009056;28;20025;-70
2023/02/02 09:14:05;;;;;;;13.45;4.38;;;9.60;99.90;;;;;;5010737;28;20295;-72
2023/02/02 09:16:32;;;;;;;21.98;5.13;;;9.60;99.90;;;;;;5010652;28;20042;-70
2023/02/02 09:18:58;;;;;;;23.83;5.03;;;9.60;99.90;;;;;;5012707;28;20037;-72
2023/02/02 09:21:24;;;;;;;16.75;4.55;;;9.60;99.90;;;;;;5011542;28;20027;-75
2023/02/02 09:23:52;;;;;;;21.80;4.05;;;9.60;99.90;;;;;;5011090;28;20107;-78
2023/02/02 09:26:26;;;;;;;18.42;4.55;;;9.70;99.90;;;;;;5009497;28;20538;-72
2023/02/02 09:29:03;;;;;;;21.88;5.30;;;9.60;99.90;;;;;;5012004;28;20022;-72
2023/02/02 09:31:32;;;;;;;21.40;4.78;;;9.60;99.90;;;;;;5007351;28;20635;-72
2023/02/02 09:34:11;;;;;;;17.42;4.38;;;9.60;99.90;;;;;;5011947;28;20038;-73
2023/02/02 09:36:38;;;;;;;22.55;4.90;;;9.70;99.90;;;;;;5007543;28;20042;-72
2023/02/02 09:39:05;;;;;;;24.80;5.07;;;9.80;99.90;;;;;;5011998;28;20036;-72
2023/02/02 09:41:36;;;;;;;15.23;4.75;;;9.80;99.90;;;;;;5006639;28;20031;-72
2023/02/02 09:44:26;;;;;;;20.33;4.70;;;9.80;99.90;;;;;;5010753;28;20053;-72
2023/02/02 09:46:51;;;;;;;25.40;5.10;;;9.80;99.90;;;;;;5008454;28;20485;-73
2023/02/02 09:49:25;;;;;;;17.13;3.75;;;9.80;99.90;;;;;;5013670;28;20121;-73
2023/02/02 09:51:57;;;;;;;18.73;4.50;;;9.80;99.90;;;;;;5011126;28;20029;-72
2023/02/02 09:54:28;;;;;;;22.00;4.82;;;9.90;99.90;;;;;;5008525;28;20033;-72
2023/02/02 09:56:57;;;;;;;19.63;3.85;;;9.90;99.90;;;;;;5013665;28;20028;-72
2023/02/02 09:59:38;;;;;;;16.10;3.92;;;10.00;99.90;;;;;;5005801;28;20037;-73
2023/02/02 10:02:16;;;;;;;19.55;4.10;;;9.90;99.90;;;;;;5008708;28;20120;-72
2023/02/02 10:04:45;;;;;;;16.00;3.80;;;9.90;99.90;;;;;;5006355;28;20026;-72
2023/02/02 10:07:17;;;;;;;16.55;3.80;;;10.00;99.90;;;;;;5011632;28;20022;-72
2023/02/02 10:09:54;;;;;;;25.20;4.85;;;10.10;99.90;;;;;;5004504;28;20081;-72
2023/02/02 10:12:48;;;;;;;20.77;4.32;;;10.00;99.90;;;;;;5013476;28;20018;-73
2023/02/02 10:15:27;;;;;;;17.75;3.60;;;10.00;99.90;;;;;;5009137;28;20125;-72
2023/02/02 10:18:03;;;;;;;15.48;3.58;;;10.10;99.90;;;;;;5009689;28;20015;-72
2023/02/02 10:20:56;;;;;;;19.67;3.80;;;10.00;99.90;;;;;;5008551;28;20096;-72
2023/02/02 10:23:25;;;;;;;14.88;3.90;;;10.00;99.90;;;;;;5010229;28;20390;-72
2023/02/02 10:25:57;;;;;;;20.83;3.70;;;9.90;99.90;;;;;;5007130;28;20022;-72
2023/02/02 10:28:48;;;;;;;14.55;4.00;;;10.10;99.90;;;;;;5013065;28;20037;-72
2023/02/02 10:31:50;;;;;;;20.05;4.22;;;10.10;99.90;;;;;;5010788;28;20022;-72
2023/02/02 10:34:34;;;;;;;19.45;4.50;;;10.20;99.90;;;;;;5000979;28;20101;-72
2023/02/02 10:37:22;;;;;;;16.38;3.55;;;10.20;99.90;;;;;;5008071;28;20062;-72
2023/02/02 10:40:16;;;;;;;14.93;4.28;;;10.20;99.90;;;;;;5004108;28;20156;-72
2023/02/02 10:45:48;;;;;;;21.60;3.72;;;10.20;99.90;;;;;;5007355;28;20049;-73
2023/02/02 10:48:21;;;;;;;18.40;4.05;;;10.20;99.90;;;;;;5004495;28;20532;-72
2023/02/02 10:50:50;;;;;;;19.58;3.70;;;10.10;99.90;;;;;;5009397;28;20034;-72
2023/02/02 10:53:16;;;;;;;16.77;3.88;;;10.20;99.90;;;;;;4981267;28;20033;-73
2023/02/02 10:56:05;;;;;;;11.82;3.97;;;10.30;99.90;;;;;;5000337;28;20565;-74
2023/02/02 10:58:49;;;;;;;16.30;4.60;;;10.30;99.90;;;;;;5004426;28;20030;-72
2023/02/02 11:01:16;;;;;;;16.98;3.30;;;10.30;99.90;;;;;;5004987;28;20113;-72
2023/02/02 11:03:43;;;;;;;15.90;4.25;;;10.30;99.90;;;;;;5006036;28;20113;-76
2023/02/02 11:09:02;;;;;;;20.15;5.18;;;10.30;99.90;;;;;;5006591;28;20044;-73
2023/02/02 11:11:41;;;;;;;13.73;3.50;;;10.30;99.90;;;;;;5008922;28;20030;-73
2023/02/02 11:14:06;;;;;;;11.98;4.03;;;10.30;99.90;;;;;;5004283;28;20022;-74
2023/02/02 11:16:38;;;;;;;18.17;4.00;;;10.40;99.90;;;;;;5020545;28;20104;-77
2023/02/02 11:19:23;;;;;;;14.93;4.03;;;10.40;99.90;;;;;;5003282;28;20017;-74
2023/02/02 11:22:00;;;;;;;12.57;3.63;;;10.40;99.90;;;;;;5005722;28;20037;-71
2023/02/02 11:24:48;;;;;;;19.73;4.47;;;10.40;99.90;;;;;;5007975;28;20037;-71
2023/02/02 11:27:21;;;;;;;17.13;4.60;;;10.40;99.90;;;;;;5022722;28;22618;-75
2023/02/02 11:29:50;;;;;;;21.83;4.85;;;10.30;99.90;;;;;;5004919;28;20121;-77
2023/02/02 11:32:28;;;;;;;26.17;4.97;;;10.40;99.90;;;;;;5003324;28;20033;-77
2023/02/02 11:35:19;;;;;;;18.13;4.22;;;10.30;99.90;;;;;;5005373;28;20065;-77
2023/02/02 11:38:01;;;;;;;13.55;3.67;;;10.30;99.90;;;;;;5005985;28;20030;-77
2023/02/02 11:40:51;;;;;;;15.77;4.07;;;10.30;99.90;;;;;;5005309;28;20121;-75
2023/02/02 11:43:31;;;;;;;19.38;5.00;;;10.40;99.90;;;;;;5005164;28;20022;-73
2023/02/02 11:46:17;;;;;;;14.32;4.50;;;10.40;99.90;;;;;;5002833;28;20136;-78
2023/02/02 11:49:08;;;;;;;15.68;4.43;;;10.30;99.90;;;;;;5004356;28;20042;-76
2023/02/02 11:51:34;;;;;;;18.95;5.30;;;10.30;99.90;;;;;;4998886;28;20045;-74
2023/02/02 11:54:27;;;;;;;11.35;4.20;;;10.30;99.90;;;;;;5003808;28;20195;-74
2023/02/02 11:56:55;;;;;;;16.70;5.88;;;10.40;99.90;;;;;;4992806;28;20458;-71
2023/02/02 11:59:38;;;;;;;18.42;5.65;;;10.40;99.90;;;;;;5007147;28;20026;-74
2023/02/02 12:02:19;;;;;;;13.77;4.68;;;10.40;99.90;;;;;;5002883;28;20137;-71
2023/02/02 12:04:50;;;;;;;16.85;5.25;;;10.40;99.90;;;;;;5003705;28;20519;-74
2023/02/02 12:07:28;;;;;;;19.42;4.45;;;10.40;99.90;;;;;;5005058;28;20037;-76
2023/02/02 12:10:01;;;;;;;16.45;4.30;;;10.40;99.90;;;;;;5005870;28;20034;-70
2023/02/02 12:12:56;;;;;;;16.80;4.78;;;10.50;99.90;;;;;;5005196;28;20023;-70
2023/02/02 12:15:39;;;;;;;23.30;4.43;;;10.60;99.90;;;;;;5003374;28;20124;-71
2023/02/02 12:18:24;;;;;;;;;;;10.60;99.90;;;;;;4992231;28;20117;-71
2023/02/02 12:21:05;;;;;;;11.13;4.15;;;10.60;99.90;;;;;;5007422;28;19924;-71
2023/02/02 12:24:09;;;;;;;15.18;3.85;;;10.70;99.90;;;;;;5005199;28;20110;-72
2023/02/02 12:26:38;;;;;;;14.50;4.18;;;10.70;99.90;;;;;;5004926;28;20044;-71
2023/02/02 12:29:15;;;;;;;16.90;4.40;;;10.70;99.90;;;;;;5004968;28;20018;-71
2023/02/02 12:31:57;;;;;;;11.00;4.45;;;10.70;99.90;;;;;;5006490;28;20133;-72
2023/02/02 12:34:40;;;;;;;23.80;5.13;;;10.70;99.90;;;;;;5018974;28;20129;-70
2023/02/02 12:37:35;;;;;;;16.27;4.57;;;10.70;99.90;;;;;;5005639;28;20116;-70
2023/02/02 12:40:20;;;;;;;17.67;4.80;;;10.60;99.90;;;;;;5004042;28;20027;-71
2023/02/02 12:42:54;;;;;;;18.77;5.40;;;10.70;99.90;;;;;;5001033;28;20084;-70
2023/02/02 12:45:38;;;;;;;15.57;4.68;;;10.60;99.90;;;;;;4992090;28;20591;-71
2023/02/02 12:48:16;;;;;;;14.60;5.22;;;10.60;99.90;;;;;;5005823;28;20517;-71
2023/02/02 12:51:00;;;;;;;14.40;5.18;;;10.60;99.90;;;;;;5000106;28;20038;-74
2023/02/02 12:54:03;;;;;;;13.60;5.32;;;10.60;99.90;;;;;;5004614;28;20044;-71
2023/02/02 12:56:48;;;;;;;11.68;5.03;;;10.60;99.90;;;;;;5001312;28;20475;-70
2023/02/02 12:59:24;;;;;;;15.63;5.25;;;10.60;99.90;;;;;;5008237;28;20034;-72
2023/02/02 13:02:15;;;;;;;16.75;5.10;;;10.60;99.90;;;;;;5005341;28;20856;-76
2023/02/02 13:04:48;;;;;;;9.75;5.22;;;10.50;99.90;;;;;;5007073;28;20046;-75
2023/02/02 13:07:37;;;;;;;22.00;4.78;;;10.60;99.90;;;;;;5010058;28;20417;-78
2023/02/02 13:10:19;;;;;;;15.38;5.13;;;10.60;99.90;;;;;;5022342;28;20037;-76
2023/02/02 13:13:07;;;;;;;14.45;5.32;;;10.60;99.90;;;;;;5009300;28;20026;-72
2023/02/02 13:15:36;;;;;;;12.75;5.18;;;10.60;99.90;;;;;;5003631;28;20042;-73
2023/02/02 13:18:19;;;;;;;14.57;5.30;;;10.70;99.90;;;;;;5005037;28;20449;-72
2023/02/02 13:20:50;;;;;;;;;;;10.70;99.90;;;;;;5008533;28;20026;-72
2023/02/02 13:23:31;;;;;;;27.10;9.07;;;10.70;99.90;;;;;;5005863;28;19964;-71